Canehill, Arkansas
Current Conditions -  °F | °C
As of 7:53 AM on Sunday 25 Jan 2015 (Local Time) from KFYV Reporting Station
Overcast Overcast  
Wind Chill:   Ceiling: 6000
Heat Index:   Visibility: 10mi
Dew Point:   Wind: 10mph
Humidity: 74%   Direction: 270°W
Pressure: 29.78"   Gusts: 20mph
Location:  35.91°N, 94.4°W
Report Text: KFYV 251353Z 27009G17KT 10SM FEW047 OVC060 07/03 A2978 RMK AO2 SLP085 T00720028
Loading
Personal Weather Stations






























Interactive Weather Map New forecast layout! Learn more

10-Day Weather Forecast

Advertisements
Track Severe Weather on mobile